createdAt,value
2023-04-13T00:01:37.031Z,9.64
2023-04-13T00:04:06.313Z,9.67
2023-04-13T00:06:39.150Z,9.69
2023-04-13T00:09:07.987Z,9.67
2023-04-13T00:11:39.184Z,9.69
2023-04-13T00:14:08.094Z,9.68
2023-04-13T00:16:36.957Z,9.66
2023-04-13T00:19:05.856Z,9.67
2023-04-13T00:21:35.639Z,9.63
2023-04-13T00:24:06.866Z,9.63
2023-04-13T00:26:35.706Z,9.60
2023-04-13T00:29:04.408Z,9.61
2023-04-13T00:31:34.032Z,9.62
2023-04-13T00:34:03.782Z,9.62
2023-04-13T00:36:32.608Z,9.65
2023-04-13T00:39:01.381Z,9.66
2023-04-13T00:41:31.630Z,9.67
2023-04-13T00:44:01.429Z,9.64
2023-04-13T00:46:31.950Z,9.65
2023-04-13T00:49:02.216Z,9.67
2023-04-13T00:51:33.521Z,9.63
2023-04-13T00:54:02.582Z,9.71
2023-04-13T00:56:34.029Z,9.66
2023-04-13T00:59:03.785Z,9.64
2023-04-13T01:01:32.327Z,9.66
2023-04-13T01:04:01.333Z,9.69
2023-04-13T01:06:42.406Z,9.67
2023-04-13T01:09:16.887Z,9.69
2023-04-13T01:11:54.970Z,9.67
2023-04-13T01:14:29.031Z,9.65
2023-04-13T01:17:03.841Z,9.62
2023-04-13T01:19:43.759Z,9.59
2023-04-13T01:22:14.597Z,9.59
2023-04-13T01:25:01.026Z,9.60
2023-04-13T01:27:43.847Z,9.57
2023-04-13T01:30:14.794Z,9.58
2023-04-13T01:32:43.960Z,9.63
2023-04-13T01:35:14.921Z,9.59
2023-04-13T01:37:44.355Z,9.57
2023-04-13T01:40:15.860Z,9.59
2023-04-13T01:42:53.455Z,9.58
2023-04-13T01:45:26.361Z,9.57
2023-04-13T01:48:07.086Z,9.56
2023-04-13T01:50:59.228Z,9.49
2023-04-13T01:53:41.720Z,9.44
2023-04-13T01:56:15.766Z,9.44
2023-04-13T01:58:49.989Z,9.36
2023-04-13T02:01:19.183Z,9.32
2023-04-13T02:03:49.097Z,9.29
2023-04-13T02:06:17.974Z,9.24
2023-04-13T02:08:50.085Z,9.23
2023-04-13T02:11:21.651Z,9.25
2023-04-13T02:13:53.501Z,9.22
2023-04-13T02:16:22.597Z,9.17
2023-04-13T02:18:51.387Z,9.14
2023-04-13T02:21:20.293Z,9.07
2023-04-13T02:23:49.163Z,9.06
2023-04-13T02:26:18.923Z,9.01
2023-04-13T02:28:47.788Z,8.97
2023-04-13T02:31:20.839Z,8.95
2023-04-13T02:33:50.180Z,8.92
2023-04-13T02:36:19.376Z,8.86
2023-04-13T02:38:55.897Z,8.81
2023-04-13T02:41:31.050Z,8.78
2023-04-13T02:44:00.190Z,8.75
2023-04-13T02:46:35.531Z,8.71
2023-04-13T02:49:10.940Z,8.68
2023-04-13T02:51:47.158Z,8.67
2023-04-13T02:54:17.206Z,8.63
2023-04-13T02:56:49.311Z,8.66
2023-04-13T02:59:18.286Z,8.65
2023-04-13T03:01:48.893Z,8.68
2023-04-13T03:04:20.918Z,8.68
2023-04-13T03:06:49.721Z,8.68
2023-04-13T03:09:19.328Z,8.70
2023-04-13T03:11:55.028Z,8.68
2023-04-13T03:14:30.278Z,8.63
2023-04-13T03:17:08.444Z,8.64
2023-04-13T03:19:42.235Z,8.59
2023-04-13T03:22:13.560Z,8.64
2023-04-13T03:24:47.628Z,8.60
2023-04-13T03:27:24.197Z,8.67
2023-04-13T03:29:56.178Z,8.63
2023-04-13T03:32:27.825Z,8.65
2023-04-13T03:35:01.626Z,8.63
2023-04-13T03:37:32.953Z,8.57
2023-04-13T03:40:13.180Z,8.53
2023-04-13T03:42:50.686Z,8.55
2023-04-13T03:45:19.971Z,8.52
2023-04-13T03:47:50.963Z,8.48
2023-04-13T03:50:23.137Z,8.48
2023-04-13T03:52:53.358Z,8.49
2023-04-13T03:55:23.374Z,8.45
2023-04-13T03:57:55.971Z,8.38
2023-04-13T04:00:29.332Z,8.43
2023-04-13T04:03:22.837Z,8.36
2023-04-13T04:05:58.913Z,8.33
2023-04-13T04:08:30.497Z,8.29
2023-04-13T04:11:04.342Z,8.25
2023-04-13T04:13:34.693Z,8.23
2023-04-13T04:16:11.578Z,8.18
2023-04-13T04:18:47.851Z,8.17
2023-04-13T04:21:22.015Z,8.18
2023-04-13T04:23:52.567Z,8.13
2023-04-13T04:26:25.973Z,8.15
2023-04-13T04:29:02.570Z,8.12
2023-04-13T04:31:37.125Z,8.11
2023-04-13T04:34:13.377Z,8.05
2023-04-13T04:36:50.600Z,8.04
2023-04-13T04:39:22.815Z,8.04
2023-04-13T04:42:04.687Z,8.01
2023-04-13T04:44:35.190Z,8.01
2023-04-13T04:47:08.436Z,7.96
2023-04-13T04:49:52.576Z,7.95
2023-04-13T04:52:22.425Z,7.89
2023-04-13T04:54:53.197Z,7.93
2023-04-13T04:57:22.620Z,8.01
2023-04-13T04:59:52.049Z,8.05
2023-04-13T05:02:22.816Z,8.15
2023-04-13T05:04:55.539Z,8.24
2023-04-13T05:07:24.473Z,8.29
2023-04-13T05:09:53.261Z,8.33
2023-04-13T05:12:22.307Z,8.38
2023-04-13T05:14:51.477Z,8.47
2023-04-13T05:17:20.674Z,8.51
2023-04-13T05:19:49.552Z,8.54
2023-04-13T05:22:27.302Z,8.61
2023-04-13T05:25:03.214Z,8.70
2023-04-13T05:27:32.242Z,8.75
2023-04-13T05:30:01.232Z,8.80
2023-04-13T05:32:35.282Z,8.90
2023-04-13T05:35:06.073Z,8.99
2023-04-13T05:37:36.845Z,9.11
2023-04-13T05:40:14.539Z,9.23
2023-04-13T05:42:46.011Z,9.32
2023-04-13T05:45:20.657Z,9.45
2023-04-13T05:48:12.545Z,9.58
2023-04-13T05:50:44.489Z,9.68
2023-04-13T05:53:16.341Z,9.74
2023-04-13T05:55:51.989Z,9.83
2023-04-13T05:58:22.296Z,9.91
2023-04-13T06:00:58.421Z,10.00
2023-04-13T06:03:33.014Z,10.07
2023-04-13T06:06:05.203Z,10.12
2023-04-13T06:08:35.361Z,10.10
2023-04-13T06:11:04.030Z,10.17
2023-04-13T06:13:32.969Z,10.31
2023-04-13T06:16:02.087Z,10.40
2023-04-13T06:18:31.017Z,10.58
2023-04-13T06:20:59.945Z,10.74
2023-04-13T06:23:28.824Z,10.90
2023-04-13T06:26:05.116Z,10.99
2023-04-13T06:28:50.317Z,11.03
2023-04-13T06:31:21.401Z,11.05
2023-04-13T06:33:51.809Z,11.11
2023-04-13T06:36:27.060Z,11.19
2023-04-13T06:38:58.158Z,11.27
2023-04-13T06:41:29.180Z,11.33
2023-04-13T06:44:14.257Z,11.42
2023-04-13T06:46:53.551Z,11.55
2023-04-13T06:49:25.085Z,11.70
2023-04-13T06:51:54.076Z,11.79
2023-04-13T06:54:23.013Z,11.81
2023-04-13T06:57:02.646Z,11.89
2023-04-13T06:59:31.379Z,11.94
2023-04-13T07:02:00.228Z,11.95
2023-04-13T07:04:30.932Z,11.97
2023-04-13T07:07:01.875Z,12.01
2023-04-13T07:09:30.991Z,12.07
2023-04-13T07:12:04.697Z,12.08
2023-04-13T07:14:35.774Z,12.10
2023-04-13T07:17:06.266Z,12.12
2023-04-13T07:19:36.492Z,12.10
2023-04-13T07:22:05.657Z,12.09
2023-04-13T07:24:36.099Z,12.09
2023-04-13T07:27:10.987Z,12.07
2023-04-13T07:29:40.052Z,12.05
2023-04-13T07:32:13.954Z,12.05
2023-04-13T07:34:47.338Z,12.01
2023-04-13T07:37:17.625Z,11.96
2023-04-13T07:39:46.553Z,11.90
2023-04-13T07:42:16.823Z,11.81
2023-04-13T07:44:50.641Z,11.77
2023-04-13T07:47:19.670Z,11.74
2023-04-13T07:49:50.028Z,11.74
2023-04-13T07:52:22.157Z,11.76
2023-04-13T07:54:52.679Z,11.78
2023-04-13T07:57:23.331Z,11.84
2023-04-13T07:59:58.155Z,11.84
2023-04-13T08:02:27.203Z,11.85
2023-04-13T08:05:00.102Z,11.82
2023-04-13T08:07:32.429Z,11.90
2023-04-13T08:10:04.353Z,11.99
2023-04-13T08:12:34.762Z,12.01
2023-04-13T08:15:03.574Z,12.03
2023-04-13T08:17:33.346Z,12.02
2023-04-13T08:20:04.312Z,12.05
2023-04-13T08:22:33.506Z,12.09
2023-04-13T08:25:02.299Z,12.14
2023-04-13T08:27:31.443Z,12.17
2023-04-13T08:30:02.269Z,12.20
2023-04-13T08:32:41.975Z,12.18
2023-04-13T08:35:11.862Z,12.18
2023-04-13T08:37:42.115Z,12.14
2023-04-13T08:40:13.564Z,12.15
2023-04-13T08:42:44.813Z,12.18
2023-04-13T08:45:16.616Z,12.16
2023-04-13T08:47:49.946Z,12.22
2023-04-13T08:50:24.084Z,12.22
2023-04-13T08:52:55.977Z,12.25
2023-04-13T08:55:29.632Z,12.25
2023-04-13T08:58:05.037Z,12.25
2023-04-13T09:00:37.644Z,12.17
2023-04-13T09:03:13.991Z,12.08
2023-04-13T09:05:50.286Z,12.03
2023-04-13T09:08:19.214Z,12.06
2023-04-13T09:10:50.362Z,12.07
2023-04-13T09:13:19.172Z,12.04
2023-04-13T09:15:49.610Z,12.01
2023-04-13T09:18:28.797Z,11.97
2023-04-13T09:21:05.084Z,11.98
2023-04-13T09:23:33.859Z,11.98
2023-04-13T09:26:07.212Z,12.00
2023-04-13T09:28:47.132Z,11.99
2023-04-13T09:31:17.754Z,11.98
2023-04-13T09:33:48.185Z,11.99
2023-04-13T09:36:19.032Z,11.97
2023-04-13T09:38:55.293Z,11.99
2023-04-13T09:41:36.336Z,12.01
2023-04-13T09:44:16.427Z,12.01
2023-04-13T09:46:58.269Z,11.98
2023-04-13T09:49:27.409Z,11.98
2023-04-13T09:51:56.314Z,12.00
2023-04-13T09:54:25.127Z,11.98
2023-04-13T09:56:55.924Z,12.02
2023-04-13T09:59:24.866Z,12.10
2023-04-13T10:01:56.138Z,12.14
2023-04-13T10:04:26.042Z,12.15
2023-04-13T10:06:55.059Z,12.18
2023-04-13T10:09:26.784Z,12.23
2023-04-13T10:11:57.191Z,12.24
2023-04-13T10:14:28.470Z,12.21
2023-04-13T10:17:15.198Z,12.18
2023-04-13T10:19:47.688Z,12.24
2023-04-13T10:22:18.188Z,12.26
2023-04-13T10:24:47.181Z,12.26
2023-04-13T10:27:18.102Z,12.33
2023-04-13T10:29:47.801Z,12.34
2023-04-13T10:32:25.974Z,12.33
2023-04-13T10:34:55.206Z,12.35
2023-04-13T10:37:27.568Z,12.43
2023-04-13T10:40:06.658Z,12.43
2023-04-13T10:45:24.291Z,12.48
2023-04-13T10:47:55.650Z,12.44
2023-04-13T10:50:28.508Z,12.36
2023-04-13T10:52:58.890Z,12.39
2023-04-13T10:55:28.637Z,12.37
2023-04-13T10:57:57.732Z,12.40
2023-04-13T11:00:44.803Z,12.42
2023-04-13T11:03:19.381Z,12.42
2023-04-13T11:05:48.735Z,12.32
2023-04-13T11:08:21.457Z,12.27
2023-04-13T11:10:54.372Z,12.29
2023-04-13T11:13:25.416Z,12.31
2023-04-13T11:16:03.599Z,12.42
2023-04-13T11:18:34.290Z,12.55
2023-04-13T11:21:06.858Z,12.54
2023-04-13T11:23:37.567Z,12.53
2023-04-13T11:26:07.318Z,12.57
2023-04-13T11:28:40.997Z,12.60
2023-04-13T11:31:11.686Z,12.60
2023-04-13T11:33:44.734Z,12.48
2023-04-13T11:36:14.670Z,12.48
2023-04-13T11:38:44.311Z,12.50
2023-04-13T11:41:17.122Z,12.54
2023-04-13T11:43:48.580Z,12.54
2023-04-13T11:46:25.604Z,12.60
2023-04-13T11:48:56.847Z,12.64
2023-04-13T11:51:27.156Z,12.64
2023-04-13T11:53:57.180Z,12.60
2023-04-13T11:56:26.518Z,12.60
2023-04-13T11:58:55.512Z,12.57
2023-04-13T12:01:28.258Z,12.63
2023-04-13T12:04:14.737Z,12.61
2023-04-13T12:06:47.641Z,12.69
2023-04-13T12:09:20.232Z,12.74
2023-04-13T12:12:12.081Z,12.74
2023-04-13T12:19:56.161Z,12.68
2023-04-13T12:22:27.264Z,12.62
2023-04-13T12:24:56.845Z,12.56
2023-04-13T12:27:25.911Z,12.49
2023-04-13T12:29:54.629Z,12.47
2023-04-13T12:32:27.013Z,12.45
2023-04-13T12:34:57.469Z,12.44
2023-04-13T12:37:26.718Z,12.44
2023-04-13T12:39:55.552Z,12.44
2023-04-13T12:42:24.269Z,12.43
2023-04-13T12:44:53.049Z,12.40
2023-04-13T12:47:21.834Z,12.35
2023-04-13T12:49:50.771Z,12.35
2023-04-13T12:52:20.940Z,12.33
2023-04-13T12:54:50.086Z,12.34
2023-04-13T12:57:18.857Z,12.29
2023-04-13T12:59:47.770Z,12.23
2023-04-13T13:02:16.849Z,12.19
2023-04-13T13:04:45.796Z,12.14
2023-04-13T13:07:14.610Z,12.08
2023-04-13T13:09:45.055Z,12.10
2023-04-13T13:12:14.666Z,12.09
2023-04-13T13:14:43.517Z,12.15
2023-04-13T13:17:12.293Z,12.18
2023-04-13T13:19:41.090Z,12.17
2023-04-13T13:22:09.754Z,12.14
2023-04-13T13:24:39.518Z,12.10
2023-04-13T13:29:42.055Z,12.07
2023-04-13T13:32:11.040Z,12.03
2023-04-13T13:34:39.727Z,12.04
2023-04-13T13:37:08.997Z,12.06
2023-04-13T13:39:39.589Z,12.05
2023-04-13T13:42:09.761Z,12.01
2023-04-13T13:44:38.588Z,12.03
2023-04-13T13:47:07.315Z,12.04
2023-04-13T13:49:39.139Z,11.98
2023-04-13T13:52:19.092Z,11.98
2023-04-13T13:54:55.480Z,11.96
2023-04-13T13:57:25.804Z,11.88
2023-04-13T13:59:54.536Z,11.82
2023-04-13T14:02:23.214Z,11.71
2023-04-13T14:04:51.993Z,11.59
2023-04-13T14:07:20.664Z,11.49
2023-04-13T14:09:49.294Z,11.42
2023-04-13T14:12:18.032Z,11.40
2023-04-13T14:14:48.326Z,11.43
2023-04-13T14:17:17.559Z,11.43
2023-04-13T14:19:46.361Z,11.48
2023-04-13T14:22:15.098Z,11.50
2023-04-13T14:24:43.668Z,11.43
2023-04-13T14:27:12.565Z,11.36
2023-04-13T14:29:41.255Z,11.33
2023-04-13T14:32:11.402Z,11.33
2023-04-13T14:34:39.998Z,11.27
2023-04-13T14:37:10.367Z,11.18
2023-04-13T14:39:38.731Z,11.19
2023-04-13T14:42:08.303Z,11.13
2023-04-13T14:44:36.914Z,11.06
2023-04-13T14:47:08.781Z,11.09
2023-04-13T14:49:39.781Z,11.15
2023-04-13T14:52:08.527Z,11.14
2023-04-13T14:54:37.039Z,11.11
2023-04-13T14:57:05.925Z,11.12
2023-04-13T14:59:34.555Z,11.09
2023-04-13T15:02:03.290Z,11.09
2023-04-13T15:04:32.485Z,11.03
2023-04-13T15:07:02.684Z,11.03
2023-04-13T15:09:31.906Z,11.04
2023-04-13T15:12:00.904Z,11.07
2023-04-13T15:14:29.605Z,11.07
2023-04-13T15:16:58.596Z,11.06
2023-04-13T15:19:28.135Z,10.97
2023-04-13T15:21:56.802Z,10.97
2023-04-13T15:24:26.850Z,10.99
2023-04-13T15:26:55.587Z,10.99
2023-04-13T15:29:25.804Z,10.99
2023-04-13T15:31:55.964Z,10.98
2023-04-13T15:34:24.593Z,10.99
2023-04-13T15:36:53.281Z,11.00
2023-04-13T15:39:22.275Z,11.00
2023-04-13T15:41:54.467Z,11.03
2023-04-13T15:44:23.305Z,10.99
2023-04-13T15:46:51.943Z,10.99
2023-04-13T15:49:20.660Z,10.97
2023-04-13T15:51:49.309Z,10.97
2023-04-13T15:54:17.945Z,10.96
2023-04-13T15:56:46.584Z,10.97
2023-04-13T15:59:17.158Z,10.97
2023-04-13T16:01:47.412Z,10.84
2023-04-13T16:04:16.529Z,10.94
2023-04-13T16:06:45.559Z,10.96
2023-04-13T16:09:14.403Z,10.94
2023-04-13T16:11:43.085Z,10.95
2023-04-13T16:14:11.767Z,10.94
2023-04-13T16:16:47.047Z,10.93
2023-04-13T16:19:18.896Z,10.89
2023-04-13T16:21:51.141Z,10.83
2023-04-13T16:24:21.235Z,10.80
2023-04-13T16:26:50.276Z,10.80
2023-04-13T16:29:19.167Z,10.76
2023-04-13T16:31:49.571Z,10.73
2023-04-13T16:34:26.080Z,10.72
2023-04-13T16:36:55.512Z,10.63
2023-04-13T16:39:24.377Z,10.61
2023-04-13T16:41:53.102Z,10.62
2023-04-13T16:44:21.722Z,10.60
2023-04-13T16:46:51.941Z,10.65
2023-04-13T16:49:20.901Z,10.65
2023-04-13T16:51:49.757Z,10.63
2023-04-13T16:54:19.692Z,10.62
2023-04-13T16:56:48.430Z,10.62
2023-04-13T16:59:17.193Z,10.54
2023-04-13T17:01:46.098Z,10.56
2023-04-13T17:04:16.303Z,10.52
2023-04-13T17:06:47.628Z,10.54
2023-04-13T17:09:16.539Z,10.52
2023-04-13T17:11:45.152Z,10.45
2023-04-13T17:14:13.969Z,10.44
2023-04-13T17:16:42.784Z,10.46
2023-04-13T17:19:11.595Z,10.47
2023-04-13T17:21:41.751Z,10.46
2023-04-13T17:24:10.650Z,10.45
2023-04-13T17:26:39.346Z,10.40
2023-04-13T17:29:08.762Z,10.40
2023-04-13T17:31:37.852Z,10.40
2023-04-13T17:34:06.761Z,10.38
2023-04-13T17:36:35.353Z,10.36
2023-04-13T17:39:08.630Z,10.34
2023-04-13T17:41:38.006Z,10.22
2023-04-13T17:44:06.676Z,10.15
2023-04-13T17:46:35.324Z,10.14
2023-04-13T17:49:04.028Z,10.16
2023-04-13T17:51:34.280Z,10.17
2023-04-13T17:54:07.951Z,10.16
2023-04-13T17:56:38.168Z,10.05
2023-04-13T17:59:06.892Z,9.98
2023-04-13T18:01:35.923Z,9.99
2023-04-13T18:04:05.120Z,10.01
2023-04-13T18:06:33.796Z,10.02
2023-04-13T18:09:02.456Z,10.04
2023-04-13T18:11:31.304Z,10.00
2023-04-13T18:14:02.659Z,9.99
2023-04-13T18:16:33.200Z,9.94
2023-04-13T18:19:02.487Z,9.95
2023-04-13T18:21:32.862Z,9.93
2023-04-13T18:24:02.674Z,9.90
2023-04-13T18:26:32.229Z,9.89
2023-04-13T18:29:02.431Z,9.90
2023-04-13T18:31:31.245Z,9.83
2023-04-13T18:34:00.211Z,9.91
2023-04-13T18:36:29.037Z,9.91
2023-04-13T18:38:57.706Z,9.91
2023-04-13T18:41:26.517Z,9.88
2023-04-13T18:43:55.554Z,9.84
2023-04-13T18:46:26.925Z,9.87
2023-04-13T18:48:55.773Z,9.83
2023-04-13T18:51:24.587Z,9.88
2023-04-13T18:53:53.399Z,9.90
2023-04-13T18:56:21.991Z,9.92
2023-04-13T18:58:50.840Z,9.95
2023-04-13T19:01:20.229Z,9.94
2023-04-13T19:03:53.274Z,9.98
2023-04-13T19:06:22.239Z,9.98
2023-04-13T19:08:50.984Z,10.00
2023-04-13T19:11:20.247Z,9.98
2023-04-13T19:13:49.227Z,9.92
2023-04-13T19:16:18.131Z,9.95
2023-04-13T19:18:46.940Z,9.89
2023-04-13T19:21:18.667Z,9.94
2023-04-13T19:23:50.249Z,9.75
2023-04-13T19:26:19.135Z,9.88
2023-04-13T19:28:48.436Z,9.88
2023-04-13T19:31:17.638Z,9.85
2023-04-13T19:33:46.566Z,9.86
2023-04-13T19:36:16.799Z,9.85
2023-04-13T19:38:45.678Z,9.85
2023-04-13T19:41:14.789Z,9.83
2023-04-13T19:43:43.687Z,9.81
2023-04-13T19:46:12.720Z,9.82
2023-04-13T19:48:42.605Z,9.81
2023-04-13T19:51:12.345Z,9.80
2023-04-13T19:53:42.907Z,9.63
2023-04-13T19:56:13.444Z,9.83
2023-04-13T19:58:42.055Z,9.83
2023-04-13T20:01:14.112Z,9.83
2023-04-13T20:03:43.302Z,9.82
2023-04-13T20:06:12.415Z,9.81
2023-04-13T20:08:44.098Z,9.73
2023-04-13T20:11:13.079Z,9.76
2023-04-13T20:13:42.569Z,9.74
2023-04-13T20:16:12.701Z,9.70
2023-04-13T20:18:41.638Z,9.62
2023-04-13T20:21:11.036Z,9.67
2023-04-13T20:23:42.575Z,9.65
2023-04-13T20:26:11.364Z,9.61
2023-04-13T20:28:40.142Z,9.55
2023-04-13T20:31:09.331Z,9.51
2023-04-13T20:33:38.108Z,9.44
2023-04-13T20:36:07.062Z,9.39
2023-04-13T20:38:36.715Z,9.39
2023-04-13T20:41:07.508Z,9.39
2023-04-13T20:43:37.934Z,9.39
2023-04-13T20:46:06.581Z,9.41
2023-04-13T20:51:10.219Z,9.34
2023-04-13T20:53:38.982Z,9.32
2023-04-13T20:56:09.391Z,9.31
2023-04-13T20:58:38.574Z,9.29
2023-04-13T21:01:07.316Z,9.30
2023-04-13T21:03:36.171Z,9.29
2023-04-13T21:06:05.238Z,9.31
2023-04-13T21:08:34.037Z,9.32
2023-04-13T21:11:02.742Z,9.36
2023-04-13T21:13:32.949Z,9.35
2023-04-13T21:16:01.703Z,9.30
2023-04-13T21:18:30.394Z,9.30
2023-04-13T21:20:59.295Z,9.32
2023-04-13T21:23:27.887Z,9.38
2023-04-13T21:25:56.662Z,9.40
2023-04-13T21:28:25.730Z,9.42
2023-04-13T21:30:55.949Z,9.40
2023-04-13T21:33:24.935Z,9.36
2023-04-13T21:35:53.649Z,9.38
2023-04-13T21:38:22.396Z,9.39
2023-04-13T21:40:51.228Z,9.43
2023-04-13T21:43:20.093Z,9.44
2023-04-13T21:45:48.754Z,9.40
2023-04-13T21:48:18.944Z,9.38
2023-04-13T21:50:47.989Z,9.38
2023-04-13T21:53:16.724Z,9.37
2023-04-13T21:55:45.477Z,9.38
2023-04-13T21:58:14.055Z,9.38
2023-04-13T22:00:43.079Z,9.40
2023-04-13T22:03:13.414Z,9.42
2023-04-13T22:05:43.698Z,9.43
2023-04-13T22:08:12.401Z,9.43
2023-04-13T22:10:41.019Z,9.43
2023-04-13T22:13:09.770Z,9.42
2023-04-13T22:15:38.362Z,9.44
2023-04-13T22:18:07.844Z,9.41
2023-04-13T22:20:36.529Z,9.37
2023-04-13T22:23:06.692Z,9.36
2023-04-13T22:25:35.490Z,9.38
2023-04-13T22:28:04.249Z,9.35
2023-04-13T22:30:33.382Z,9.42
2023-04-13T22:33:02.001Z,9.44
2023-04-13T22:35:30.898Z,9.43
2023-04-13T22:37:59.517Z,9.42
2023-04-13T22:40:29.684Z,9.43
2023-04-13T22:42:58.476Z,9.40
2023-04-13T22:45:27.006Z,9.42
2023-04-13T22:47:55.884Z,9.44
2023-04-13T22:50:24.642Z,9.42
2023-04-13T22:52:54.619Z,9.40
2023-04-13T22:55:23.214Z,9.37
2023-04-13T22:57:53.420Z,9.36
2023-04-13T23:00:22.141Z,9.37
2023-04-13T23:02:53.175Z,9.37
2023-04-13T23:05:21.996Z,9.39
2023-04-13T23:07:51.050Z,9.42
2023-04-13T23:10:20.082Z,9.41
2023-04-13T23:12:48.744Z,9.42
2023-04-13T23:15:19.038Z,9.45
2023-04-13T23:17:47.998Z,9.47
2023-04-13T23:20:16.593Z,9.45
2023-04-13T23:22:45.685Z,9.42
2023-04-13T23:25:14.682Z,9.40
2023-04-13T23:27:43.523Z,9.39
2023-04-13T23:30:13.205Z,9.39
2023-04-13T23:32:43.199Z,9.38
2023-04-13T23:35:12.024Z,9.42
2023-04-13T23:37:43.566Z,9.40
2023-04-13T23:40:12.677Z,9.36
2023-04-13T23:42:41.479Z,9.40
2023-04-13T23:45:10.854Z,9.41
2023-04-13T23:47:39.588Z,9.38
2023-04-13T23:50:11.735Z,9.36
2023-04-13T23:52:40.477Z,9.41
2023-04-13T23:55:09.915Z,9.41
2023-04-13T23:57:38.601Z,9.43
